Time;durP1;ratioP1;P1;durP2;ratioP2;P2;SDS_P1;SDS_P2;PMS_P1;PMS_P2;Temp;Humidity;BMP_temperature;BMP_pressure;BME280_temperature;BME280_humidity;BME280_pressure;Samples;Min_cycle;Max_cycle;Signal;HPM_P1;HPM_P2
2024/02/13 00:00:38;;;;;;;12.82;10.35;;;;;;;;;;4969885;28;20098;-47
2024/02/13 00:03:09;;;;;;;14.87;10.23;;;;;;;;;;4953547;28;20058;-51
2024/02/13 00:05:35;;;;;;;13.05;9.80;;;;;;;;;;4955152;28;20118;-48
2024/02/13 00:08:01;;;;;;;11.13;8.70;;;;;;;;;;4956623;28;20038;-49
2024/02/13 00:10:29;;;;;;;11.40;9.53;;;;;;;;;;4971688;28;20026;-47
2024/02/13 00:12:58;;;;;;;14.63;9.63;;;;;;;;;;4973046;28;20046;-50
2024/02/13 00:15:25;;;;;;;11.63;9.55;;;;;;;;;;4963931;28;20051;-48
2024/02/13 00:17:51;;;;;;;14.65;10.48;;;;;;;;;;4974220;28;20037;-50
2024/02/13 00:20:18;;;;;;;11.90;9.77;;;;;;;;;;4958752;28;20019;-50
2024/02/13 00:22:45;;;;;;;11.88;9.43;;;;;;;;;;4972852;28;20343;-46
2024/02/13 00:25:12;;;;;;;11.48;9.07;;;;;;;;;;4973702;28;20039;-49
2024/02/13 00:27:38;;;;;;;11.63;10.25;;;;;;;;;;4972694;28;20042;-48
2024/02/13 00:30:05;;;;;;;16.13;10.93;;;;;;;;;;4938291;28;20032;-50
2024/02/13 00:32:32;;;;;;;15.65;11.85;;;;;;;;;;4973547;28;20043;-46
2024/02/13 00:34:59;;;;;;;15.32;11.38;;;;;;;;;;4962211;28;20540;-48
2024/02/13 00:37:25;;;;;;;14.75;10.48;;;;;;;;;;4968520;28;20037;-50
2024/02/13 00:39:51;;;;;;;16.60;12.20;;;;;;;;;;4954599;28;20035;-47
2024/02/13 00:42:18;;;;;;;15.88;10.27;;;;;;;;;;4965372;28;20031;-47
2024/02/13 00:44:44;;;;;;;14.82;9.23;;;;;;;;;;4964186;28;20556;-47
2024/02/13 00:47:10;;;;;;;15.02;9.93;;;;;;;;;;4968901;28;20031;-47
2024/02/13 00:49:37;;;;;;;15.80;11.88;;;;;;;;;;4971767;28;20468;-48
2024/02/13 00:52:05;;;;;;;15.98;12.13;;;;;;;;;;4954592;28;20032;-46
2024/02/13 00:54:31;;;;;;;13.88;11.00;;;;;;;;;;4963066;28;20085;-49
2024/02/13 00:56:57;;;;;;;13.97;11.87;;;;;;;;;;4973067;28;20114;-47
2024/02/13 00:59:25;;;;;;;12.73;11.02;;;;;;;;;;4971866;28;20358;-48
2024/02/13 01:01:51;;;;;;;13.70;10.88;;;;;;;;;;4962586;28;20483;-48
2024/02/13 01:04:17;;;;;;;13.50;9.83;;;;;;;;;;4972584;28;20110;-46
2024/02/13 01:06:43;;;;;;;11.98;9.13;;;;;;;;;;4959291;28;20463;-47
2024/02/13 01:09:10;;;;;;;13.32;9.77;;;;;;;;;;4954262;28;20496;-50
2024/02/13 01:11:36;;;;;;;13.20;10.43;;;;;;;;;;4961791;28;20038;-52
2024/02/13 01:14:03;;;;;;;15.57;11.43;;;;;;;;;;4965586;28;20031;-48
2024/02/13 01:16:29;;;;;;;13.63;10.82;;;;;;;;;;4965684;28;20411;-48
2024/02/13 01:18:57;;;;;;;17.98;13.65;;;;;;;;;;4973017;28;20039;-48
2024/02/13 01:21:23;;;;;;;22.77;15.18;;;;;;;;;;4934832;29;20042;-46
2024/02/13 01:23:50;;;;;;;22.88;16.92;;;;;;;;;;4959309;28;20050;-47
2024/02/13 01:26:20;;;;;;;20.85;16.42;;;;;;;;;;4969929;28;20444;-49
2024/02/13 01:28:46;;;;;;;27.00;18.10;;;;;;;;;;4972884;28;20030;-47
2024/02/13 01:31:13;;;;;;;24.75;18.10;;;;;;;;;;4971681;28;20041;-46
2024/02/13 01:33:39;;;;;;;24.60;18.07;;;;;;;;;;4964502;28;20235;-46
2024/02/13 01:36:09;;;;;;;22.30;17.98;;;;;;;;;;4969412;28;20480;-47
2024/02/13 01:38:37;;;;;;;24.25;18.80;;;;;;;;;;4969456;28;20098;-49
2024/02/13 01:41:04;;;;;;;26.40;19.40;;;;;;;;;;4952728;28;20310;-47
2024/02/13 01:43:31;;;;;;;;;;;;;;;;;;4952848;29;20031;-47
2024/02/13 01:45:57;;;;;;;27.23;18.33;;;;;;;;;;4959857;28;20446;-46
2024/02/13 01:48:25;;;;;;;26.98;19.20;;;;;;;;;;4972617;28;20069;-45
2024/02/13 01:50:51;;;;;;;30.00;20.65;;;;;;;;;;4962864;28;20488;-46
2024/02/13 01:53:21;;;;;;;29.08;19.17;;;;;;;;;;4953659;28;20063;-46
2024/02/13 01:55:50;;;;;;;29.60;21.55;;;;;;;;;;4945309;28;20106;-46
2024/02/13 01:58:16;;;;;;;32.05;21.77;;;;;;;;;;4953682;28;20019;-47
2024/02/13 02:00:43;;;;;;;30.80;22.00;;;;;;;;;;4965279;28;20395;-48
2024/02/13 02:03:13;;;;;;;32.70;23.45;;;;;;;;;;4971380;28;20031;-47
2024/02/13 02:05:40;;;;;;;32.38;22.63;;;;;;;;;;4960171;28;20042;-48
2024/02/13 02:08:07;;;;;;;33.33;23.08;;;;;;;;;;4954761;28;20455;-47
2024/02/13 02:10:33;;;;;;;34.38;21.13;;;;;;;;;;4954510;28;20038;-46
2024/02/13 02:13:01;;;;;;;33.97;22.85;;;;;;;;;;4971821;28;20069;-47
2024/02/13 02:15:28;;;;;;;35.25;22.33;;;;;;;;;;4969464;28;20031;-50
2024/02/13 02:17:54;;;;;;;37.83;24.77;;;;;;;;;;4953403;28;20032;-47
2024/02/13 02:20:24;;;;;;;37.35;24.13;;;;;;;;;;4964055;28;20027;-48
2024/02/13 02:22:51;;;;;;;40.80;26.13;;;;;;;;;;4969616;28;20035;-47
2024/02/13 02:25:21;;;;;;;45.28;27.85;;;;;;;;;;4972451;28;20030;-50
2024/02/13 02:27:48;;;;;;;48.00;29.85;;;;;;;;;;4971050;28;20062;-47
2024/02/13 02:30:14;;;;;;;50.08;30.15;;;;;;;;;;4971270;28;20076;-47
2024/02/13 02:32:41;;;;;;;53.03;30.98;;;;;;;;;;4967865;28;20019;-48
2024/02/13 02:35:07;;;;;;;53.95;31.77;;;;;;;;;;4972426;28;20034;-48
2024/02/13 02:37:36;;;;;;;59.65;35.45;;;;;;;;;;4965909;28;20062;-48
2024/02/13 02:40:04;;;;;;;63.55;35.03;;;;;;;;;;4954194;28;20035;-48
2024/02/13 02:42:31;;;;;;;63.42;34.28;;;;;;;;;;4954231;28;20492;-49
2024/02/13 02:44:58;;;;;;;62.88;33.80;;;;;;;;;;4958537;28;20046;-48
2024/02/13 02:47:25;;;;;;;59.70;35.00;;;;;;;;;;4953677;28;20031;-46
2024/02/13 02:49:51;;;;;;;67.03;37.15;;;;;;;;;;4952983;28;20492;-47
2024/02/13 02:52:17;;;;;;;58.50;35.63;;;;;;;;;;4956125;28;20103;-47
2024/02/13 02:54:44;;;;;;;73.43;39.80;;;;;;;;;;4965965;28;20039;-47
2024/02/13 02:57:13;;;;;;;68.80;36.47;;;;;;;;;;4973080;28;20254;-48
2024/02/13 02:59:39;;;;;;;70.15;38.70;;;;;;;;;;4975503;28;20447;-47
2024/02/13 03:02:07;;;;;;;67.15;37.03;;;;;;;;;;4968061;28;20039;-47
2024/02/13 03:04:33;;;;;;;70.50;37.65;;;;;;;;;;4974240;28;20121;-48
2024/02/13 03:07:00;;;;;;;73.05;37.40;;;;;;;;;;4959104;28;20042;-47
2024/02/13 03:09:26;;;;;;;70.60;38.40;;;;;;;;;;4962922;28;20069;-47
2024/02/13 03:11:52;;;;;;;84.38;41.03;;;;;;;;;;4968543;28;20037;-47
2024/02/13 03:14:18;;;;;;;72.20;39.55;;;;;;;;;;4957310;28;20444;-49
2024/02/13 03:16:47;;;;;;;70.43;40.42;;;;;;;;;;4957965;28;20034;-46
2024/02/13 03:19:13;;;;;;;74.82;38.13;;;;;;;;;;4954906;28;20449;-48
2024/02/13 03:21:39;;;;;;;76.55;40.20;;;;;;;;;;4960307;28;20027;-49
2024/02/13 03:24:06;;;;;;;70.03;38.78;;;;;;;;;;4956218;28;20031;-46
2024/02/13 03:26:32;;;;;;;72.03;37.93;;;;;;;;;;4963616;28;20039;-47
2024/02/13 03:28:58;;;;;;;73.18;37.92;;;;;;;;;;4973899;28;20514;-47
2024/02/13 03:31:25;;;;;;;69.97;37.50;;;;;;;;;;4967897;28;20026;-49
2024/02/13 03:33:51;;;;;;;73.97;39.80;;;;;;;;;;4957427;28;20031;-46
2024/02/13 03:36:17;;;;;;;72.88;38.88;;;;;;;;;;4955838;28;20023;-49
2024/02/13 03:38:44;;;;;;;85.32;39.20;;;;;;;;;;4970376;28;20117;-49
2024/02/13 03:41:10;;;;;;;86.68;41.85;;;;;;;;;;4974238;28;20035;-47
2024/02/13 03:43:36;;;;;;;117.05;44.13;;;;;;;;;;4970949;28;20030;-49
2024/02/13 03:46:04;;;;;;;97.30;44.80;;;;;;;;;;4967101;28;20396;-51
2024/02/13 03:48:30;;;;;;;130.55;46.38;;;;;;;;;;4955623;28;20031;-46
2024/02/13 03:50:56;;;;;;;165.07;48.88;;;;;;;;;;4955510;28;20039;-49
2024/02/13 03:53:23;;;;;;;122.70;43.60;;;;;;;;;;4955963;28;20027;-46
2024/02/13 03:55:49;;;;;;;143.45;42.60;;;;;;;;;;4965956;28;20038;-47
2024/02/13 03:58:15;;;;;;;162.88;50.03;;;;;;;;;;4955483;28;20488;-47
2024/02/13 04:00:41;;;;;;;177.53;50.17;;;;;;;;;;4956671;28;20027;-49
2024/02/13 04:03:09;;;;;;;285.83;61.23;;;;;;;;;;4970776;28;20322;-46
2024/02/13 04:05:38;;;;;;;133.75;48.05;;;;;;;;;;4974224;28;20288;-47
2024/02/13 04:08:08;;;;;;;117.03;48.03;;;;;;;;;;4973839;28;20030;-47
2024/02/13 04:10:35;;;;;;;173.82;53.08;;;;;;;;;;4961519;28;20027;-48
2024/02/13 04:13:01;;;;;;;280.98;64.82;;;;;;;;;;4967105;28;20051;-49
2024/02/13 04:15:27;;;;;;;138.15;51.20;;;;;;;;;;4955092;28;20038;-46
2024/02/13 04:17:54;;;;;;;107.03;45.17;;;;;;;;;;4963955;28;20058;-47
2024/02/13 04:20:20;;;;;;;179.13;53.47;;;;;;;;;;4974414;28;20265;-47
2024/02/13 04:22:46;;;;;;;196.02;54.95;;;;;;;;;;4972937;28;20122;-46
2024/02/13 04:25:12;;;;;;;214.93;59.88;;;;;;;;;;4957757;28;20027;-47
2024/02/13 04:27:39;;;;;;;166.07;51.78;;;;;;;;;;4954855;28;20463;-47
2024/02/13 04:30:08;;;;;;;225.50;57.60;;;;;;;;;;4954859;28;20412;-47
2024/02/13 04:32:37;;;;;;;158.70;54.30;;;;;;;;;;4974251;28;20786;-47
2024/02/13 04:35:10;;;;;;;170.95;49.75;;;;;;;;;;4971856;28;20495;-47
2024/02/13 04:37:36;;;;;;;243.27;61.53;;;;;;;;;;4958235;28;20023;-49
2024/02/13 04:40:03;;;;;;;218.53;58.67;;;;;;;;;;4954035;29;20086;-48
2024/02/13 04:42:33;;;;;;;284.30;63.42;;;;;;;;;;4971342;28;20038;-46
2024/02/13 04:45:00;;;;;;;200.52;55.22;;;;;;;;;;4962145;28;20042;-48
2024/02/13 04:47:33;;;;;;;207.10;60.28;;;;;;;;;;4965036;28;20035;-47
2024/02/13 04:50:00;;;;;;;182.48;57.05;;;;;;;;;;4956375;28;20038;-49
2024/02/13 04:52:27;;;;;;;206.48;58.78;;;;;;;;;;4969143;28;20046;-50
2024/02/13 04:54:53;;;;;;;239.93;63.67;;;;;;;;;;4973413;28;20058;-46
2024/02/13 04:57:20;;;;;;;260.02;72.80;;;;;;;;;;4960628;28;20027;-50
2024/02/13 04:59:49;;;;;;;312.20;81.28;;;;;;;;;;4973089;28;20117;-49
2024/02/13 05:02:17;;;;;;;191.50;60.42;;;;;;;;;;4973377;28;20031;-49
2024/02/13 05:07:29;;;;;;;407.08;91.30;;;;;;;;;;4973439;28;20042;-47
2024/02/13 05:10:01;;;;;;;294.08;71.78;;;;;;;;;;4973473;28;20015;-48
2024/02/13 05:12:27;;;;;;;331.95;80.90;;;;;;;;;;4973512;28;20029;-49
2024/02/13 05:14:53;;;;;;;285.83;70.05;;;;;;;;;;4972295;28;20394;-47
2024/02/13 05:17:20;;;;;;;467.80;95.88;;;;;;;;;;4973313;28;20038;-48
2024/02/13 05:19:48;;;;;;;366.73;82.20;;;;;;;;;;4972033;28;20037;-49
2024/02/13 05:22:15;;;;;;;384.15;82.13;;;;;;;;;;4972218;28;20031;-48
2024/02/13 05:24:41;;;;;;;272.77;72.20;;;;;;;;;;4973298;28;20489;-48
2024/02/13 05:27:08;;;;;;;475.53;98.23;;;;;;;;;;4973316;28;20090;-48
2024/02/13 05:29:35;;;;;;;543.63;122.32;;;;;;;;;;4973226;28;20027;-49
2024/02/13 05:32:03;;;;;;;285.13;73.53;;;;;;;;;;4973340;28;20446;-48
2024/02/13 05:34:29;;;;;;;439.10;94.70;;;;;;;;;;4973134;28;20038;-47
2024/02/13 05:36:58;;;;;;;373.90;86.73;;;;;;;;;;4971775;28;20041;-47
2024/02/13 05:39:27;;;;;;;333.65;85.15;;;;;;;;;;4972937;28;20043;-48
2024/02/13 05:41:54;;;;;;;386.42;92.07;;;;;;;;;;4971806;28;20450;-47
2024/02/13 05:44:21;;;;;;;301.15;80.47;;;;;;;;;;4973074;28;20035;-48
2024/02/13 05:46:48;;;;;;;274.13;73.15;;;;;;;;;;4972960;28;20081;-50
2024/02/13 05:49:14;;;;;;;281.30;78.55;;;;;;;;;;4972867;28;20376;-47
2024/02/13 05:51:40;;;;;;;361.90;89.20;;;;;;;;;;4973029;28;20054;-48
2024/02/13 05:54:07;;;;;;;408.60;98.00;;;;;;;;;;4971829;28;20132;-47
2024/02/13 05:56:35;;;;;;;277.03;80.10;;;;;;;;;;4972843;28;20416;-46
2024/02/13 05:59:03;;;;;;;322.75;86.65;;;;;;;;;;4971700;28;20027;-48
2024/02/13 06:01:29;;;;;;;322.00;79.95;;;;;;;;;;4972851;28;20538;-47
2024/02/13 06:03:58;;;;;;;447.77;105.18;;;;;;;;;;4955385;28;20559;-48
2024/02/13 06:06:27;;;;;;;369.42;90.60;;;;;;;;;;4972727;28;20514;-47
2024/02/13 06:08:54;;;;;;;552.92;119.25;;;;;;;;;;4972702;28;20027;-47
2024/02/13 06:11:21;;;;;;;392.98;91.82;;;;;;;;;;4971580;28;20031;-49
2024/02/13 06:13:49;;;;;;;370.30;83.00;;;;;;;;;;4972792;28;20058;-47
2024/02/13 06:16:19;;;;;;;404.17;86.57;;;;;;;;;;4972584;28;20089;-46
2024/02/13 06:18:48;;;;;;;411.67;100.15;;;;;;;;;;4972653;28;20102;-48
2024/02/13 06:21:18;;;;;;;286.10;71.15;;;;;;;;;;4972733;28;20051;-48
2024/02/13 06:23:44;;;;;;;235.48;69.15;;;;;;;;;;4972625;28;20027;-48
2024/02/13 06:26:11;;;;;;;394.67;95.55;;;;;;;;;;4971227;28;20027;-47
2024/02/13 06:28:37;;;;;;;299.00;71.30;;;;;;;;;;4972632;28;20034;-49
2024/02/13 06:31:04;;;;;;;308.00;84.07;;;;;;;;;;4973547;28;20038;-47
2024/02/13 06:33:30;;;;;;;215.73;67.88;;;;;;;;;;4975155;28;20073;-49
2024/02/13 06:35:57;;;;;;;255.90;73.83;;;;;;;;;;4976271;28;20037;-47
2024/02/13 06:38:24;;;;;;;233.73;73.90;;;;;;;;;;4976121;28;20587;-47
2024/02/13 06:40:53;;;;;;;404.92;88.53;;;;;;;;;;4976384;28;20043;-48
2024/02/13 06:43:19;;;;;;;401.50;100.68;;;;;;;;;;4958958;28;20039;-50
2024/02/13 06:45:47;;;;;;;367.00;87.28;;;;;;;;;;4974826;28;20038;-48
2024/02/13 06:48:14;;;;;;;310.95;80.47;;;;;;;;;;4976302;28;20110;-47
2024/02/13 06:50:41;;;;;;;294.17;81.72;;;;;;;;;;4976030;28;20026;-48
2024/02/13 06:53:07;;;;;;;275.17;75.47;;;;;;;;;;4976150;28;20041;-47
2024/02/13 06:55:33;;;;;;;448.08;104.97;;;;;;;;;;4975927;28;20106;-49
2024/02/13 06:58:00;;;;;;;376.92;93.28;;;;;;;;;;4975968;28;20031;-47
2024/02/13 07:00:30;;;;;;;281.45;77.38;;;;;;;;;;4976073;28;20042;-48
2024/02/13 07:02:57;;;;;;;463.30;111.22;;;;;;;;;;4976013;28;20031;-47
2024/02/13 07:05:24;;;;;;;377.38;92.88;;;;;;;;;;4974341;28;20117;-47
2024/02/13 07:07:50;;;;;;;290.75;85.53;;;;;;;;;;4975890;28;20027;-48
2024/02/13 07:10:16;;;;;;;332.33;87.03;;;;;;;;;;4975804;28;20030;-47
2024/02/13 07:12:43;;;;;;;406.70;106.80;;;;;;;;;;4974522;28;20546;-47
2024/02/13 07:15:09;;;;;;;353.08;88.75;;;;;;;;;;4974335;28;20104;-47
2024/02/13 07:17:35;;;;;;;464.33;120.17;;;;;;;;;;4975524;28;20460;-47
2024/02/13 07:20:02;;;;;;;434.03;94.57;;;;;;;;;;4974391;28;20041;-48
2024/02/13 07:22:28;;;;;;;296.00;82.30;;;;;;;;;;4975850;28;20077;-49
2024/02/13 07:24:54;;;;;;;315.88;85.32;;;;;;;;;;4975389;28;20322;-48
2024/02/13 07:27:20;;;;;;;413.92;103.78;;;;;;;;;;4974091;28;20034;-53
2024/02/13 07:29:47;;;;;;;420.52;98.05;;;;;;;;;;4975646;28;20062;-48
2024/02/13 07:32:13;;;;;;;344.85;94.53;;;;;;;;;;4974079;28;20062;-47
2024/02/13 07:34:42;;;;;;;346.73;91.15;;;;;;;;;;4975309;28;20503;-47
2024/02/13 07:37:09;;;;;;;300.70;81.60;;;;;;;;;;4975173;28;20057;-50
2024/02/13 07:39:35;;;;;;;328.10;85.45;;;;;;;;;;4975133;28;20109;-47
2024/02/13 07:42:01;;;;;;;268.20;77.97;;;;;;;;;;4974599;28;20114;-47
2024/02/13 07:44:29;;;;;;;282.87;81.57;;;;;;;;;;4974533;28;20288;-48
2024/02/13 07:46:58;;;;;;;271.40;81.30;;;;;;;;;;4974907;28;20301;-48
2024/02/13 07:49:24;;;;;;;290.42;78.60;;;;;;;;;;4974957;28;20054;-49
2024/02/13 07:51:51;;;;;;;275.95;83.55;;;;;;;;;;4973796;28;20034;-47
2024/02/13 07:54:21;;;;;;;292.67;86.47;;;;;;;;;;4974914;28;20035;-48
2024/02/13 07:56:48;;;;;;;271.17;82.75;;;;;;;;;;4974842;28;20058;-48
2024/02/13 07:59:14;;;;;;;245.48;81.68;;;;;;;;;;4973558;28;20074;-48
2024/02/13 08:01:43;;;;;;;245.20;78.27;;;;;;;;;;4974801;28;20089;-48
2024/02/13 08:04:10;;;;;;;244.27;75.97;;;;;;;;;;4974738;28;20286;-47
2024/02/13 08:06:37;;;;;;;259.17;84.45;;;;;;;;;;4973426;28;20034;-49
2024/02/13 08:09:06;;;;;;;252.35;75.63;;;;;;;;;;4973408;28;20034;-48
2024/02/13 08:11:32;;;;;;;261.08;89.18;;;;;;;;;;4973481;28;20023;-48
2024/02/13 08:13:58;;;;;;;230.60;79.13;;;;;;;;;;4973358;28;20031;-48
2024/02/13 08:16:29;;;;;;;229.35;74.18;;;;;;;;;;4973213;28;20027;-50
2024/02/13 08:18:55;;;;;;;216.10;78.93;;;;;;;;;;4974553;28;20101;-47
2024/02/13 08:21:22;;;;;;;216.57;76.28;;;;;;;;;;4974471;28;20023;-49
2024/02/13 08:23:48;;;;;;;196.60;71.28;;;;;;;;;;4973217;28;20031;-49
2024/02/13 08:26:14;;;;;;;168.70;64.53;;;;;;;;;;4974395;28;20464;-48
2024/02/13 08:28:43;;;;;;;159.37;62.13;;;;;;;;;;4974265;28;20042;-47
2024/02/13 08:31:09;;;;;;;163.15;62.97;;;;;;;;;;4956918;28;20269;-46
2024/02/13 08:33:37;;;;;;;161.00;63.60;;;;;;;;;;4974281;28;20030;-47
2024/02/13 08:36:03;;;;;;;;;;;;;;;;;;4974396;28;20064;-47
2024/02/13 08:38:30;;;;;;;141.45;59.92;;;;;;;;;;4972591;28;19921;-48
2024/02/13 08:40:56;;;;;;;149.50;62.55;;;;;;;;;;4974131;28;20122;-47
2024/02/13 08:43:23;;;;;;;139.20;60.47;;;;;;;;;;4974051;28;20400;-46
2024/02/13 08:45:49;;;;;;;125.03;55.13;;;;;;;;;;4972544;28;20501;-47
2024/02/13 08:48:15;;;;;;;138.27;61.50;;;;;;;;;;4973807;28;20027;-47
2024/02/13 08:50:41;;;;;;;136.65;60.60;;;;;;;;;;4973878;28;20038;-48
2024/02/13 08:53:09;;;;;;;138.45;63.30;;;;;;;;;;4973916;28;20480;-47
2024/02/13 08:55:35;;;;;;;134.25;57.05;;;;;;;;;;4973296;28;20480;-47
2024/02/13 08:58:01;;;;;;;142.85;59.40;;;;;;;;;;4973790;28;20039;-46
2024/02/13 09:00:28;;;;;;;136.57;57.53;;;;;;;;;;4972453;28;20038;-47
2024/02/13 09:02:56;;;;;;;139.88;55.70;;;;;;;;;;4972433;28;20042;-47
2024/02/13 09:05:22;;;;;;;136.35;61.05;;;;;;;;;;4972172;28;20037;-47
2024/02/13 09:07:48;;;;;;;120.88;56.42;;;;;;;;;;4973714;28;20025;-49
2024/02/13 09:10:15;;;;;;;133.45;58.15;;;;;;;;;;4973504;28;20488;-46
2024/02/13 09:12:45;;;;;;;125.07;54.13;;;;;;;;;;4972317;28;20038;-46
2024/02/13 09:15:12;;;;;;;108.47;51.42;;;;;;;;;;4973350;28;20096;-47
2024/02/13 09:17:42;;;;;;;124.10;59.05;;;;;;;;;;4973416;28;20039;-47
2024/02/13 09:20:13;;;;;;;101.38;47.83;;;;;;;;;;4972150;28;20466;-47
2024/02/13 09:22:42;;;;;;;116.53;59.38;;;;;;;;;;4973393;28;20038;-47
2024/02/13 09:25:09;;;;;;;116.32;51.53;;;;;;;;;;4973089;28;20029;-47
2024/02/13 09:27:35;;;;;;;121.18;53.97;;;;;;;;;;4973390;28;20034;-47
2024/02/13 09:30:01;;;;;;;126.10;55.37;;;;;;;;;;4973226;28;20030;-46
2024/02/13 09:32:27;;;;;;;125.22;55.35;;;;;;;;;;4973298;28;20034;-47
2024/02/13 09:34:54;;;;;;;113.88;51.38;;;;;;;;;;4973266;28;20432;-47
2024/02/13 09:37:21;;;;;;;126.50;55.60;;;;;;;;;;4972958;28;20034;-47
2024/02/13 09:39:47;;;;;;;105.05;55.88;;;;;;;;;;4971921;28;20034;-47
2024/02/13 09:42:16;;;;;;;96.40;48.70;;;;;;;;;;4973188;28;20038;-46
2024/02/13 09:44:43;;;;;;;97.10;49.28;;;;;;;;;;4972890;28;20400;-50
2024/02/13 09:47:09;;;;;;;83.88;45.75;;;;;;;;;;4971759;28;20480;-47
2024/02/13 09:49:38;;;;;;;86.05;45.70;;;;;;;;;;4972910;28;20403;-48
2024/02/13 09:52:05;;;;;;;81.15;46.80;;;;;;;;;;4973017;28;20109;-48
2024/02/13 09:54:34;;;;;;;85.35;49.28;;;;;;;;;;4972969;28;20400;-46
2024/02/13 09:57:01;;;;;;;96.45;52.72;;;;;;;;;;4972783;28;20035;-46
2024/02/13 09:59:29;;;;;;;99.60;50.63;;;;;;;;;;4972805;28;20403;-47
2024/02/13 10:01:57;;;;;;;88.07;47.08;;;;;;;;;;4972922;28;20106;-47
2024/02/13 10:04:23;;;;;;;89.82;46.22;;;;;;;;;;4972725;28;20026;-47
2024/02/13 10:06:50;;;;;;;93.88;48.03;;;;;;;;;;4973716;28;20039;-46
2024/02/13 10:09:18;;;;;;;80.32;44.90;;;;;;;;;;4976858;28;20026;-47
2024/02/13 10:11:47;;;;;;;81.22;47.25;;;;;;;;;;4976818;28;20031;-48
2024/02/13 10:14:19;;;;;;;76.80;44.22;;;;;;;;;;4976708;28;20039;-48
2024/02/13 10:16:48;;;;;;;78.60;41.40;;;;;;;;;;4975340;28;20035;-47
2024/02/13 10:19:14;;;;;;;79.57;43.38;;;;;;;;;;4975524;28;20023;-47
2024/02/13 10:21:41;;;;;;;79.82;40.63;;;;;;;;;;4976696;28;20372;-47
2024/02/13 10:24:12;;;;;;;64.43;37.75;;;;;;;;;;4975299;28;20035;-50
2024/02/13 10:26:38;;;;;;;72.57;39.85;;;;;;;;;;4976560;28;20027;-47
2024/02/13 10:29:05;;;;;;;71.90;39.17;;;;;;;;;;4976509;28;20438;-46
2024/02/13 10:31:37;;;;;;;80.87;45.67;;;;;;;;;;4975313;28;20097;-47
2024/02/13 10:34:04;;;;;;;83.05;42.85;;;;;;;;;;4976488;28;20034;-47
2024/02/13 10:36:37;;;;;;;78.25;43.17;;;;;;;;;;4975015;28;20041;-47
2024/02/13 10:39:08;;;;;;;86.50;47.00;;;;;;;;;;4976738;28;20035;-48
2024/02/13 10:41:45;;;;;;;79.10;44.75;;;;;;;;;;4976371;28;20075;-47
2024/02/13 10:44:13;;;;;;;68.05;41.22;;;;;;;;;;4975129;28;20097;-46
2024/02/13 10:46:40;;;;;;;77.25;42.58;;;;;;;;;;4976097;28;20042;-47
2024/02/13 10:49:07;;;;;;;;;;;;;;;;;;4976511;28;20507;-47
2024/02/13 10:51:33;;;;;;;72.85;40.47;;;;;;;;;;4976155;28;20483;-46
2024/02/13 10:54:04;;;;;;;66.72;38.67;;;;;;;;;;4976287;28;20038;-48
2024/02/13 10:56:36;;;;;;;71.68;43.78;;;;;;;;;;4976204;28;20027;-47
2024/02/13 10:59:02;;;;;;;69.18;42.05;;;;;;;;;;4975893;28;20392;-47
2024/02/13 11:01:31;;;;;;;70.20;43.67;;;;;;;;;;4976002;28;20019;-46
2024/02/13 11:03:58;;;;;;;76.63;44.08;;;;;;;;;;4975762;28;20031;-47
2024/02/13 11:06:25;;;;;;;67.85;41.47;;;;;;;;;;4974569;28;20090;-47
2024/02/13 11:08:51;;;;;;;70.63;41.47;;;;;;;;;;4975734;28;20038;-46
2024/02/13 11:11:21;;;;;;;62.50;37.77;;;;;;;;;;4975779;28;20262;-47
2024/02/13 11:13:49;;;;;;;60.17;37.35;;;;;;;;;;4975673;28;20101;-48
2024/02/13 11:16:18;;;;;;;63.83;41.58;;;;;;;;;;4975522;28;20476;-46
2024/02/13 11:18:48;;;;;;;72.95;46.00;;;;;;;;;;4975348;28;20034;-48
2024/02/13 11:21:24;;;;;;;67.20;41.70;;;;;;;;;;4975499;28;20464;-47
2024/02/13 11:23:53;;;;;;;67.70;42.65;;;;;;;;;;4975510;28;20031;-50
2024/02/13 11:26:20;;;;;;;69.10;42.42;;;;;;;;;;4975276;28;20104;-48
2024/02/13 11:28:48;;;;;;;63.45;41.00;;;;;;;;;;4974125;28;20567;-47
2024/02/13 11:31:17;;;;;;;62.75;39.95;;;;;;;;;;4975282;28;20030;-46
2024/02/13 11:34:03;;;;;;;61.40;38.72;;;;;;;;;;4975179;28;20061;-47
2024/02/13 11:36:30;;;;;;;61.03;36.58;;;;;;;;;;4975043;28;20046;-47
2024/02/13 11:38:58;;;;;;;65.03;39.42;;;;;;;;;;4974720;28;20490;-47
2024/02/13 11:41:25;;;;;;;78.32;40.42;;;;;;;;;;4972839;28;20030;-46
2024/02/13 11:43:51;;;;;;;56.60;36.10;;;;;;;;;;4972642;28;20027;-47
2024/02/13 11:46:18;;;;;;;59.65;37.13;;;;;;;;;;4973333;28;20042;-46
2024/02/13 11:48:44;;;;;;;55.42;35.38;;;;;;;;;;4973915;28;20035;-47
2024/02/13 11:51:11;;;;;;;66.38;39.25;;;;;;;;;;4960174;28;20046;-49
2024/02/13 11:53:40;;;;;;;60.28;40.08;;;;;;;;;;4954699;28;20031;-47
2024/02/13 11:56:07;;;;;;;58.55;38.60;;;;;;;;;;4954209;28;20113;-47
2024/02/13 11:58:34;;;;;;;67.93;43.13;;;;;;;;;;4951995;28;20027;-48
2024/02/13 12:01:02;;;;;;;;;;;;;;;;;;4953872;28;20023;-47
2024/02/13 12:03:29;;;;;;;69.30;41.10;;;;;;;;;;4954376;28;19911;-47
2024/02/13 12:05:56;;;;;;;61.47;38.70;;;;;;;;;;4952993;28;20511;-47
2024/02/13 12:08:24;;;;;;;61.95;38.72;;;;;;;;;;4954298;28;20035;-48
2024/02/13 12:10:51;;;;;;;60.45;37.15;;;;;;;;;;4953168;29;20060;-47
2024/02/13 12:13:18;;;;;;;58.17;37.72;;;;;;;;;;4954348;28;20020;-48
2024/02/13 12:15:46;;;;;;;56.22;37.92;;;;;;;;;;4954159;28;20035;-47
2024/02/13 12:18:12;;;;;;;62.22;38.03;;;;;;;;;;4952345;28;20039;-47
2024/02/13 12:20:39;;;;;;;58.50;39.17;;;;;;;;;;4953365;28;20035;-47
2024/02/13 12:23:12;;;;;;;64.75;40.67;;;;;;;;;;4952924;28;20031;-47
2024/02/13 12:25:41;;;;;;;62.05;39.47;;;;;;;;;;4954003;28;20114;-47
2024/02/13 12:28:07;;;;;;;57.67;37.50;;;;;;;;;;4953905;28;20023;-48
2024/02/13 12:30:33;;;;;;;56.77;39.07;;;;;;;;;;4952397;28;20055;-48
2024/02/13 12:33:09;;;;;;;59.53;36.20;;;;;;;;;;4954046;28;20255;-49
2024/02/13 12:35:37;;;;;;;54.80;35.80;;;;;;;;;;4953768;28;20039;-49
2024/02/13 12:40:51;;;;;;;49.42;33.00;;;;;;;;;;5068941;28;20409;-47
2024/02/13 12:43:21;;;;;;;51.78;33.25;;;;;;;;;;5067763;28;20032;-46
2024/02/13 12:45:48;;;;;;;47.58;32.75;;;;;;;;;;5066900;28;20027;-46
2024/02/13 12:48:15;;;;;;;43.42;32.25;;;;;;;;;;5067312;28;20017;-48
2024/02/13 12:50:41;;;;;;;46.30;30.60;;;;;;;;;;5065391;28;20036;-47
2024/02/13 12:53:09;;;;;;;40.95;27.88;;;;;;;;;;5057766;28;20079;-46
2024/02/13 12:55:38;;;;;;;41.63;28.70;;;;;;;;;;5064745;28;20033;-50
2024/02/13 12:58:07;;;;;;;41.78;29.02;;;;;;;;;;5065540;28;20517;-48
2024/02/13 13:00:35;;;;;;;39.65;29.70;;;;;;;;;;5061643;28;20505;-48
2024/02/13 13:03:01;;;;;;;36.13;26.50;;;;;;;;;;5044947;28;20045;-48
2024/02/13 13:05:28;;;;;;;38.63;28.58;;;;;;;;;;5044750;28;20458;-47
2024/02/13 13:07:58;;;;;;;36.65;27.67;;;;;;;;;;5065621;28;20021;-47
2024/02/13 13:10:26;;;;;;;35.42;26.58;;;;;;;;;;5052263;28;20029;-48
2024/02/13 13:12:54;;;;;;;37.55;27.80;;;;;;;;;;5046842;28;20040;-47
2024/02/13 13:15:21;;;;;;;34.17;26.27;;;;;;;;;;5059378;28;20499;-48
2024/02/13 13:17:47;;;;;;;35.03;25.48;;;;;;;;;;5067184;28;20082;-48
2024/02/13 13:20:17;;;;;;;33.77;23.90;;;;;;;;;;5049014;28;20033;-47
2024/02/13 13:22:47;;;;;;;32.72;25.52;;;;;;;;;;5045358;28;20517;-48
2024/02/13 13:25:23;;;;;;;34.03;25.00;;;;;;;;;;5060325;28;20028;-49
2024/02/13 13:27:54;;;;;;;28.50;22.02;;;;;;;;;;5046667;28;20029;-49
2024/02/13 13:30:21;;;;;;;30.88;24.10;;;;;;;;;;5051979;28;20033;-47
2024/02/13 13:32:48;;;;;;;34.47;23.73;;;;;;;;;;5065298;28;20508;-48
2024/02/13 13:35:19;;;;;;;30.25;21.90;;;;;;;;;;5050565;28;20082;-48
2024/02/13 13:37:47;;;;;;;30.90;23.63;;;;;;;;;;5063573;28;20037;-49
2024/02/13 13:40:13;;;;;;;27.83;21.77;;;;;;;;;;5064864;28;20086;-49
2024/02/13 13:42:46;;;;;;;30.95;22.83;;;;;;;;;;5055952;28;20082;-47
2024/02/13 13:45:15;;;;;;;30.65;22.00;;;;;;;;;;5053252;28;20501;-47
2024/02/13 13:47:42;;;;;;;26.30;21.45;;;;;;;;;;5046972;28;20029;-50
2024/02/13 13:50:08;;;;;;;;;;;;;;;;;;5045272;28;20025;-49
2024/02/13 13:52:35;;;;;;;27.83;22.58;;;;;;;;;;5039186;28;19915;-47
2024/02/13 13:55:02;;;;;;;30.40;22.98;;;;;;;;;;5051579;28;20028;-48
2024/02/13 13:57:28;;;;;;;27.98;22.10;;;;;;;;;;5054177;28;20386;-53
2024/02/13 13:59:55;;;;;;;26.48;21.52;;;;;;;;;;5054207;28;20035;-48
2024/02/13 14:02:21;;;;;;;27.88;19.42;;;;;;;;;;5054155;28;20610;-46
2024/02/13 14:04:47;;;;;;;26.35;21.23;;;;;;;;;;5054295;28;20044;-48
2024/02/13 14:07:14;;;;;;;22.85;19.60;;;;;;;;;;5053940;28;20100;-49
2024/02/13 14:09:41;;;;;;;24.58;19.63;;;;;;;;;;5054257;28;20430;-46
2024/02/13 14:12:07;;;;;;;25.83;21.10;;;;;;;;;;5052893;28;20091;-48
2024/02/13 14:14:34;;;;;;;22.13;18.33;;;;;;;;;;5054009;28;20063;-48
2024/02/13 14:17:02;;;;;;;20.33;18.17;;;;;;;;;;5052578;28;20021;-52
2024/02/13 14:19:29;;;;;;;20.58;17.30;;;;;;;;;;5052611;28;20481;-51